Time;durP1;ratioP1;P1;durP2;ratioP2;P2;SDS_P1;SDS_P2;PMS_P1;PMS_P2;Temp;Humidity;BMP_temperature;BMP_pressure;BME280_temperature;BME280_humidity;BME280_pressure;Samples;Min_cycle;Max_cycle;Signal;HPM_P1;HPM_P2
2024/02/07 00:00:56;;;;;;;38.15;36.17;;;;;;;;;;5022854;28;20041;-51
2024/02/07 00:03:22;;;;;;;38.03;35.83;;;;;;;;;;5018217;28;20033;-50
2024/02/07 00:05:48;;;;;;;39.40;37.33;;;;;;;;;;5021049;28;20079;-51
2024/02/07 00:08:13;;;;;;;40.08;38.03;;;;;;;;;;5019667;28;20059;-52
2024/02/07 00:10:39;;;;;;;41.97;39.80;;;;;;;;;;5019037;28;20033;-54
2024/02/07 00:13:04;;;;;;;41.22;39.10;;;;;;;;;;5019178;28;20060;-53
2024/02/07 00:15:29;;;;;;;41.35;39.20;;;;;;;;;;5019203;28;20029;-55
2024/02/07 00:17:55;;;;;;;42.60;40.40;;;;;;;;;;5019208;28;20045;-56
2024/02/07 00:20:21;;;;;;;41.47;39.33;;;;;;;;;;5020412;28;20037;-54
2024/02/07 00:22:46;;;;;;;40.45;38.38;;;;;;;;;;5021837;28;20034;-52
2024/02/07 00:25:11;;;;;;;42.10;39.92;;;;;;;;;;5020917;28;20029;-54
2024/02/07 00:27:37;;;;;;;43.47;41.03;;;;;;;;;;5021157;28;20040;-51
2024/02/07 00:30:05;;;;;;;45.28;42.97;;;;;;;;;;5020832;28;20521;-53
2024/02/07 00:32:30;;;;;;;43.03;40.83;;;;;;;;;;5019558;28;20098;-54
2024/02/07 00:34:55;;;;;;;42.33;40.15;;;;;;;;;;5022351;28;20034;-53
2024/02/07 00:37:21;;;;;;;44.25;41.80;;;;;;;;;;5020500;28;20033;-52
2024/02/07 00:39:46;;;;;;;44.10;41.78;;;;;;;;;;5020111;28;20698;-53
2024/02/07 00:42:12;;;;;;;43.55;41.25;;;;;;;;;;5018256;28;20038;-51
2024/02/07 00:44:38;;;;;;;46.17;43.83;;;;;;;;;;5018038;28;20030;-51
2024/02/07 00:47:03;;;;;;;46.90;44.40;;;;;;;;;;5018525;28;20116;-52
2024/02/07 00:49:28;;;;;;;45.22;42.78;;;;;;;;;;5021315;28;20392;-51
2024/02/07 00:51:54;;;;;;;46.78;44.38;;;;;;;;;;5025065;28;20037;-54
2024/02/07 00:54:21;;;;;;;46.92;44.53;;;;;;;;;;5018700;28;20460;-56
2024/02/07 00:56:46;;;;;;;45.33;42.92;;;;;;;;;;5020920;28;20037;-54
2024/02/07 00:59:12;;;;;;;48.15;45.67;;;;;;;;;;5020927;28;20506;-53
2024/02/07 01:01:38;;;;;;;45.05;42.78;;;;;;;;;;5018324;28;20123;-52
2024/02/07 01:04:03;;;;;;;45.25;42.92;;;;;;;;;;5018147;28;20057;-52
2024/02/07 01:06:28;;;;;;;43.72;41.42;;;;;;;;;;5018401;28;20037;-54
2024/02/07 01:08:54;;;;;;;42.50;40.33;;;;;;;;;;5017493;28;20624;-50
2024/02/07 01:11:19;;;;;;;39.72;37.67;;;;;;;;;;5018370;28;20094;-55
2024/02/07 01:13:47;;;;;;;40.75;38.50;;;;;;;;;;5022732;28;20554;-51
2024/02/07 01:16:12;;;;;;;45.90;43.53;;;;;;;;;;5019126;28;20477;-53
2024/02/07 01:18:39;;;;;;;45.00;42.70;;;;;;;;;;5021067;28;20133;-55
2024/02/07 01:21:07;;;;;;;46.13;43.45;;;;;;;;;;5003053;28;20662;-52
2024/02/07 01:23:32;;;;;;;47.78;45.17;;;;;;;;;;5017701;28;20044;-54
2024/02/07 01:25:59;;;;;;;46.15;43.78;;;;;;;;;;5018886;28;20029;-53
2024/02/07 01:28:24;;;;;;;43.28;41.03;;;;;;;;;;5019883;28;20049;-54
2024/02/07 01:30:50;;;;;;;42.70;40.40;;;;;;;;;;5019355;28;20041;-54
2024/02/07 01:33:16;;;;;;;42.58;40.40;;;;;;;;;;5018463;28;20371;-52
2024/02/07 01:35:42;;;;;;;42.83;40.53;;;;;;;;;;5018051;28;20208;-54
2024/02/07 01:38:07;;;;;;;45.00;42.63;;;;;;;;;;5016608;28;20464;-55
2024/02/07 01:40:42;;;;;;;41.78;39.65;;;;;;;;;;5016843;28;20037;-53
2024/02/07 01:43:11;;;;;;;46.70;44.25;;;;;;;;;;5017018;28;20038;-54
2024/02/07 01:45:37;;;;;;;45.78;43.30;;;;;;;;;;5021478;28;20066;-55
2024/02/07 01:48:04;;;;;;;46.30;43.65;;;;;;;;;;5019779;28;20135;-51
2024/02/07 01:50:30;;;;;;;45.10;42.72;;;;;;;;;;5018052;28;20569;-53
2024/02/07 01:53:03;;;;;;;45.80;43.40;;;;;;;;;;5019186;28;20037;-53
2024/02/07 01:55:30;;;;;;;42.97;40.75;;;;;;;;;;5018529;28;20033;-53
2024/02/07 01:57:57;;;;;;;47.08;44.70;;;;;;;;;;5020720;28;20037;-51
2024/02/07 02:00:24;;;;;;;48.90;46.40;;;;;;;;;;5020764;28;20126;-55
2024/02/07 02:02:51;;;;;;;51.05;48.42;;;;;;;;;;5020584;28;20049;-52
2024/02/07 02:05:17;;;;;;;51.05;48.45;;;;;;;;;;5018980;28;20116;-55
2024/02/07 02:07:43;;;;;;;49.80;47.22;;;;;;;;;;5017056;28;20116;-53
2024/02/07 02:10:10;;;;;;;48.67;46.17;;;;;;;;;;5017755;28;20150;-54
2024/02/07 02:12:36;;;;;;;52.08;49.38;;;;;;;;;;5020070;28;20041;-53
2024/02/07 02:15:03;;;;;;;47.75;45.30;;;;;;;;;;5022057;28;20067;-55
2024/02/07 02:17:28;;;;;;;50.63;47.80;;;;;;;;;;5019742;28;20045;-53
2024/02/07 02:19:54;;;;;;;48.75;46.25;;;;;;;;;;5014882;28;20033;-52
2024/02/07 02:22:47;;;;;;;47.58;45.08;;;;;;;;;;5023031;28;20107;-51
2024/02/07 02:25:31;;;;;;;50.88;48.17;;;;;;;;;;5016372;28;20609;-52
2024/02/07 02:28:21;;;;;;;46.03;43.58;;;;;;;;;;5019429;28;20041;-54
2024/02/07 02:30:54;;;;;;;48.50;46.00;;;;;;;;;;5019249;28;20021;-52
2024/02/07 02:33:24;;;;;;;50.10;47.45;;;;;;;;;;5018787;28;20029;-55
2024/02/07 02:35:52;;;;;;;47.50;45.10;;;;;;;;;;5019915;28;20497;-54
2024/02/07 02:38:19;;;;;;;49.63;47.13;;;;;;;;;;5019292;28;20095;-52
2024/02/07 02:40:44;;;;;;;49.58;47.05;;;;;;;;;;5020852;28;20039;-55
2024/02/07 02:43:10;;;;;;;45.10;42.70;;;;;;;;;;5017231;28;20026;-53
2024/02/07 02:45:36;;;;;;;50.83;48.03;;;;;;;;;;5018518;28;21185;-53
2024/02/07 02:48:02;;;;;;;47.83;45.38;;;;;;;;;;5017062;28;20107;-55
2024/02/07 02:50:29;;;;;;;47.20;44.70;;;;;;;;;;5021218;28;20496;-54
2024/02/07 02:52:55;;;;;;;47.80;44.45;;;;;;;;;;5019427;28;20051;-54
2024/02/07 02:55:21;;;;;;;45.53;43.20;;;;;;;;;;5018034;28;20511;-56
2024/02/07 02:57:47;;;;;;;48.65;46.05;;;;;;;;;;5019496;28;20033;-53
2024/02/07 03:00:14;;;;;;;48.50;45.63;;;;;;;;;;5018695;28;20041;-55
2024/02/07 03:02:43;;;;;;;51.40;48.35;;;;;;;;;;5017750;28;20033;-56
2024/02/07 03:05:37;;;;;;;50.28;47.03;;;;;;;;;;5016078;28;20051;-56
2024/02/07 03:10:44;;;;;;;52.75;49.95;;;;;;;;;;5016045;28;20603;-56
2024/02/07 03:13:10;;;;;;;49.10;46.45;;;;;;;;;;5019435;28;20037;-53
2024/02/07 03:15:36;;;;;;;50.75;48.13;;;;;;;;;;5019013;28;20047;-53
2024/02/07 03:18:01;;;;;;;52.65;49.85;;;;;;;;;;5018606;28;20069;-54
2024/02/07 03:20:28;;;;;;;50.97;48.33;;;;;;;;;;5020766;28;20025;-56
2024/02/07 03:22:56;;;;;;;52.45;49.60;;;;;;;;;;5018785;28;20675;-56
2024/02/07 03:25:22;;;;;;;54.83;51.97;;;;;;;;;;5018309;28;20052;-54
2024/02/07 03:27:50;;;;;;;53.22;50.53;;;;;;;;;;5017344;28;20025;-55
2024/02/07 03:30:17;;;;;;;53.30;50.25;;;;;;;;;;5020684;28;20596;-55
2024/02/07 03:32:44;;;;;;;48.03;45.33;;;;;;;;;;5021999;28;20056;-54
2024/02/07 03:35:10;;;;;;;49.72;47.17;;;;;;;;;;5020752;28;20041;-55
2024/02/07 03:37:35;;;;;;;49.08;46.50;;;;;;;;;;5023520;28;20036;-56
2024/02/07 03:40:04;;;;;;;48.17;45.67;;;;;;;;;;5020815;28;20030;-56
2024/02/07 03:42:30;;;;;;;50.38;47.78;;;;;;;;;;5020706;28;20041;-55
2024/02/07 03:45:03;;;;;;;48.85;46.35;;;;;;;;;;5022800;28;20045;-56
2024/02/07 03:47:30;;;;;;;46.88;44.47;;;;;;;;;;5022993;28;20086;-59
2024/02/07 03:49:57;;;;;;;48.38;45.88;;;;;;;;;;5021684;28;20041;-53
2024/02/07 03:52:22;;;;;;;49.47;46.47;;;;;;;;;;5021552;28;20045;-55
2024/02/07 03:54:50;;;;;;;47.95;45.38;;;;;;;;;;5022450;28;21449;-56
2024/02/07 03:57:19;;;;;;;48.47;45.95;;;;;;;;;;5021460;28;20037;-55
2024/02/07 03:59:45;;;;;;;46.90;44.47;;;;;;;;;;5020019;28;20069;-55
2024/02/07 04:02:21;;;;;;;46.80;44.40;;;;;;;;;;5023575;28;20045;-51
2024/02/07 04:04:55;;;;;;;47.45;45.05;;;;;;;;;;5023409;28;20033;-55
2024/02/07 04:07:23;;;;;;;45.85;43.45;;;;;;;;;;5019911;28;20025;-55
2024/02/07 04:09:49;;;;;;;47.90;45.35;;;;;;;;;;5017474;28;20076;-54
2024/02/07 05:17:21;;;;;;;40.40;38.30;;;;;;;;;;5021096;28;20136;-67
2024/02/07 05:19:50;;;;;;;42.20;39.97;;;;;;;;;;5017642;28;20643;-68
2024/02/07 05:22:21;;;;;;;41.22;39.10;;;;;;;;;;5021078;28;20041;-67
2024/02/07 05:24:47;;;;;;;46.35;43.95;;;;;;;;;;5018637;28;20044;-67
2024/02/07 05:27:13;;;;;;;44.35;41.83;;;;;;;;;;5023151;28;20033;-69
2024/02/07 05:29:39;;;;;;;42.75;40.45;;;;;;;;;;5021324;28;20570;-69
2024/02/07 05:32:06;;;;;;;40.83;38.72;;;;;;;;;;5019675;28;20075;-67
2024/02/07 05:34:31;;;;;;;43.15;40.08;;;;;;;;;;5021136;28;20108;-68
2024/02/07 05:36:57;;;;;;;43.08;40.28;;;;;;;;;;5018087;28;20056;-68
2024/02/07 05:39:23;;;;;;;41.28;39.10;;;;;;;;;;5019204;28;20108;-56
2024/02/07 05:41:49;;;;;;;44.42;42.05;;;;;;;;;;5018230;28;20034;-68
2024/02/07 05:44:15;;;;;;;43.03;40.72;;;;;;;;;;5024012;28;20040;-57
2024/02/07 05:46:40;;;;;;;45.25;42.80;;;;;;;;;;5019834;28;20025;-57
2024/02/07 05:49:06;;;;;;;46.88;44.47;;;;;;;;;;5019312;28;20041;-54
2024/02/07 05:51:32;;;;;;;47.10;44.67;;;;;;;;;;5019861;28;20044;-55
2024/02/07 05:53:57;;;;;;;45.40;42.92;;;;;;;;;;5018890;28;20041;-56
2024/02/07 05:56:23;;;;;;;45.97;43.55;;;;;;;;;;5020270;28;20477;-68
2024/02/07 05:58:49;;;;;;;46.83;44.30;;;;;;;;;;5019763;28;20029;-55
2024/02/07 06:01:15;;;;;;;48.65;45.88;;;;;;;;;;5020394;28;20046;-56
2024/02/07 06:03:41;;;;;;;45.95;43.50;;;;;;;;;;5016567;28;20041;-56
2024/02/07 06:06:06;;;;;;;48.58;46.00;;;;;;;;;;5020535;28;20033;-55
2024/02/07 06:08:33;;;;;;;52.78;50.08;;;;;;;;;;5019740;28;20040;-57
2024/02/07 06:10:59;;;;;;;46.70;44.28;;;;;;;;;;5019937;28;20025;-55
2024/02/07 06:13:24;;;;;;;55.40;52.47;;;;;;;;;;5019110;28;20040;-56
2024/02/07 06:15:50;;;;;;;47.78;45.28;;;;;;;;;;5018470;28;20033;-68
2024/02/07 06:18:17;;;;;;;50.58;47.97;;;;;;;;;;5019070;28;20485;-55
2024/02/07 06:20:42;;;;;;;50.40;47.75;;;;;;;;;;5018509;28;20052;-68
2024/02/07 06:23:08;;;;;;;52.45;49.78;;;;;;;;;;5019326;28;20025;-68
2024/02/07 06:25:33;;;;;;;54.65;51.80;;;;;;;;;;5018582;28;20116;-68
2024/02/07 06:27:59;;;;;;;58.00;54.78;;;;;;;;;;5020103;28;20033;-68
2024/02/07 06:30:24;;;;;;;47.47;44.78;;;;;;;;;;5020013;28;20041;-67
2024/02/07 06:32:49;;;;;;;54.92;52.13;;;;;;;;;;5017112;28;20064;-55
2024/02/07 06:35:15;;;;;;;60.45;57.25;;;;;;;;;;5018380;28;20029;-54
2024/02/07 06:37:42;;;;;;;63.38;60.08;;;;;;;;;;5020176;28;20100;-68
2024/02/07 06:40:08;;;;;;;55.65;52.70;;;;;;;;;;5018689;28;20033;-67
2024/02/07 06:42:33;;;;;;;55.03;52.05;;;;;;;;;;5019495;28;20123;-67
2024/02/07 06:44:59;;;;;;;61.17;57.97;;;;;;;;;;5016750;28;20172;-67
2024/02/07 06:47:24;;;;;;;63.25;59.45;;;;;;;;;;5018048;28;20041;-67
2024/02/07 06:49:50;;;;;;;65.18;61.90;;;;;;;;;;5018443;28;20033;-67
2024/02/07 06:52:15;;;;;;;74.80;71.05;;;;;;;;;;5017489;28;20205;-68
2024/02/07 06:54:40;;;;;;;72.40;68.75;;;;;;;;;;5016271;28;20045;-67
2024/02/07 06:57:06;;;;;;;83.20;79.00;;;;;;;;;;5016645;28;20122;-67
2024/02/07 06:59:31;;;;;;;90.90;86.35;;;;;;;;;;5018320;28;20037;-67
2024/02/07 07:01:56;;;;;;;84.22;80.03;;;;;;;;;;5017989;28;20073;-68
2024/02/07 07:04:22;;;;;;;93.10;88.40;;;;;;;;;;5020274;28;20179;-69
2024/02/07 07:06:47;;;;;;;93.30;88.63;;;;;;;;;;5022491;28;20068;-68
2024/02/07 07:09:13;;;;;;;95.22;90.40;;;;;;;;;;5024548;28;20041;-68
2024/02/07 07:11:38;;;;;;;105.38;99.97;;;;;;;;;;5021317;28;20042;-68
2024/02/07 07:14:03;;;;;;;111.25;105.65;;;;;;;;;;5022006;28;20112;-68
2024/02/07 07:16:29;;;;;;;107.07;101.38;;;;;;;;;;5023239;28;20124;-67
2024/02/07 07:18:56;;;;;;;123.15;116.95;;;;;;;;;;5020763;28;20504;-66
2024/02/07 07:21:21;;;;;;;105.68;100.30;;;;;;;;;;5022611;28;20033;-67
2024/02/07 07:23:47;;;;;;;115.82;110.00;;;;;;;;;;5021745;28;20116;-66
2024/02/07 07:26:12;;;;;;;112.32;106.70;;;;;;;;;;5022221;28;20061;-67
2024/02/07 07:28:37;;;;;;;117.32;111.38;;;;;;;;;;5019241;28;20037;-68
2024/02/07 07:31:03;;;;;;;118.95;112.97;;;;;;;;;;5021333;28;20625;-67
2024/02/07 07:33:28;;;;;;;119.32;113.30;;;;;;;;;;5020502;28;20057;-66
2024/02/07 07:35:54;;;;;;;126.85;120.43;;;;;;;;;;5023283;28;20470;-65
2024/02/07 07:38:19;;;;;;;137.05;130.15;;;;;;;;;;5021162;28;20384;-66
2024/02/07 07:40:44;;;;;;;136.13;129.18;;;;;;;;;;5021653;28;20269;-65
2024/02/07 07:43:10;;;;;;;142.13;134.93;;;;;;;;;;5020256;28;20091;-65
2024/02/07 07:45:35;;;;;;;152.75;145.05;;;;;;;;;;5020760;28;20490;-65
2024/02/07 07:48:00;;;;;;;151.45;143.77;;;;;;;;;;5018026;28;20125;-65
2024/02/07 07:50:26;;;;;;;166.60;157.95;;;;;;;;;;5018607;28;20443;-64
2024/02/07 07:52:51;;;;;;;157.05;149.13;;;;;;;;;;5022376;28;20041;-64
2024/02/07 07:55:16;;;;;;;157.05;149.20;;;;;;;;;;5019990;28;20049;-65
2024/02/07 07:57:42;;;;;;;175.50;166.65;;;;;;;;;;5020699;28;20038;-66
2024/02/07 08:00:08;;;;;;;176.68;167.73;;;;;;;;;;5019188;28;20030;-65
2024/02/07 08:02:33;;;;;;;179.25;170.25;;;;;;;;;;5022921;28;20042;-66
2024/02/07 08:04:58;;;;;;;170.90;162.05;;;;;;;;;;5018926;28;20117;-64
2024/02/07 08:07:24;;;;;;;166.18;157.77;;;;;;;;;;5023852;28;20120;-65
2024/02/07 08:09:50;;;;;;;176.13;167.18;;;;;;;;;;5020125;28;20040;-56
2024/02/07 08:12:15;;;;;;;169.70;161.15;;;;;;;;;;5019788;28;20033;-65
2024/02/07 08:14:41;;;;;;;160.60;152.50;;;;;;;;;;5023161;28;20345;-64
2024/02/07 08:17:06;;;;;;;169.70;161.07;;;;;;;;;;5017126;28;20062;-64
2024/02/07 08:19:32;;;;;;;161.98;153.82;;;;;;;;;;5022710;28;20057;-64
2024/02/07 08:21:57;;;;;;;151.60;143.98;;;;;;;;;;5022537;28;20112;-64
2024/02/07 08:24:24;;;;;;;154.75;146.93;;;;;;;;;;5019942;28;20072;-66
2024/02/07 08:26:49;;;;;;;135.77;128.95;;;;;;;;;;5019272;28;20136;-65
2024/02/07 08:29:14;;;;;;;158.18;149.98;;;;;;;;;;5021312;28;20113;-65
2024/02/07 08:31:40;;;;;;;157.98;149.82;;;;;;;;;;5018869;28;20061;-64
2024/02/07 08:34:05;;;;;;;147.65;140.25;;;;;;;;;;5019300;28;20120;-64
2024/02/07 08:36:30;;;;;;;153.85;146.15;;;;;;;;;;5018312;28;20467;-64
2024/02/07 08:38:56;;;;;;;153.63;145.93;;;;;;;;;;5020577;28;20584;-54
2024/02/07 08:41:21;;;;;;;147.57;140.07;;;;;;;;;;5019397;28;20033;-52
2024/02/07 08:43:47;;;;;;;148.23;140.68;;;;;;;;;;5019707;28;20513;-52
2024/02/07 08:46:12;;;;;;;145.13;137.75;;;;;;;;;;5022774;28;20128;-53
2024/02/07 08:48:37;;;;;;;154.02;146.30;;;;;;;;;;5019530;28;20033;-52
2024/02/07 08:51:03;;;;;;;144.18;136.95;;;;;;;;;;5018637;28;20041;-64
2024/02/07 08:53:29;;;;;;;144.85;137.50;;;;;;;;;;5019609;28;20026;-65
2024/02/07 08:55:57;;;;;;;142.73;135.52;;;;;;;;;;5018847;28;20155;-65
2024/02/07 08:58:23;;;;;;;135.48;128.60;;;;;;;;;;5017577;28;20049;-64
2024/02/07 09:00:49;;;;;;;142.57;135.38;;;;;;;;;;5020513;28;20364;-64
2024/02/07 09:03:14;;;;;;;142.52;135.32;;;;;;;;;;5017913;28;20088;-64
2024/02/07 09:05:40;;;;;;;135.65;128.77;;;;;;;;;;5018592;28;20416;-65
2024/02/07 09:08:05;;;;;;;144.45;137.23;;;;;;;;;;5019140;28;20511;-64
2024/02/07 09:10:31;;;;;;;135.88;129.05;;;;;;;;;;5019932;28;20029;-64
2024/02/07 09:12:56;;;;;;;131.75;125.15;;;;;;;;;;5021776;28;20064;-64
2024/02/07 09:15:22;;;;;;;134.15;127.40;;;;;;;;;;5021983;28;20164;-66
2024/02/07 09:17:47;;;;;;;131.35;124.72;;;;;;;;;;5019272;28;20048;-64
2024/02/07 09:20:12;;;;;;;137.95;130.95;;;;;;;;;;5016973;28;20088;-64
2024/02/07 09:22:41;;;;;;;135.07;127.93;;;;;;;;;;5052308;28;20034;-64
2024/02/07 09:25:06;;;;;;;144.43;136.90;;;;;;;;;;5014444;28;20375;-64
2024/02/07 09:27:32;;;;;;;133.20;126.50;;;;;;;;;;5019069;28;20124;-64
2024/02/07 09:29:57;;;;;;;137.48;130.55;;;;;;;;;;5023430;28;20030;-64
2024/02/07 09:32:23;;;;;;;143.38;136.13;;;;;;;;;;5022302;28;20026;-64
2024/02/07 09:34:48;;;;;;;136.98;130.07;;;;;;;;;;5017524;28;20495;-64
2024/02/07 09:37:13;;;;;;;135.32;128.23;;;;;;;;;;5021486;28;20033;-64
2024/02/07 09:39:39;;;;;;;133.77;126.95;;;;;;;;;;5017972;28;20140;-65
2024/02/07 09:42:07;;;;;;;129.57;123.05;;;;;;;;;;5019027;28;20120;-64
2024/02/07 09:44:32;;;;;;;118.65;112.70;;;;;;;;;;5018614;28;20038;-64
2024/02/07 09:47:00;;;;;;;107.85;102.43;;;;;;;;;;5017801;28;20041;-65
2024/02/07 09:49:28;;;;;;;102.90;97.75;;;;;;;;;;5017620;28;20040;-64
2024/02/07 09:51:54;;;;;;;100.13;95.15;;;;;;;;;;5020188;28;20367;-65
2024/02/07 09:54:19;;;;;;;93.95;89.22;;;;;;;;;;5019971;28;20041;-64
2024/02/07 09:56:45;;;;;;;96.25;91.38;;;;;;;;;;5018587;28;20062;-64
2024/02/07 09:59:12;;;;;;;93.88;89.18;;;;;;;;;;5018488;28;20110;-64
2024/02/07 10:01:38;;;;;;;80.55;76.55;;;;;;;;;;5018534;28;20180;-66
2024/02/07 10:04:08;;;;;;;78.68;74.78;;;;;;;;;;5016559;28;20068;-64
2024/02/07 10:06:34;;;;;;;75.87;72.07;;;;;;;;;;5019083;28;20066;-64
2024/02/07 10:09:00;;;;;;;69.53;66.03;;;;;;;;;;5019156;28;20471;-64
2024/02/07 10:11:26;;;;;;;58.22;55.25;;;;;;;;;;5020097;28;20398;-64
2024/02/07 10:13:51;;;;;;;57.97;55.03;;;;;;;;;;5019028;28;20247;-64
2024/02/07 10:16:17;;;;;;;57.25;54.33;;;;;;;;;;5021369;28;20029;-64
2024/02/07 10:18:44;;;;;;;54.75;52.00;;;;;;;;;;5017585;28;20026;-65
2024/02/07 10:21:10;;;;;;;51.30;48.70;;;;;;;;;;5019996;28;20029;-64
2024/02/07 10:23:36;;;;;;;53.92;51.22;;;;;;;;;;5017979;28;20065;-64
2024/02/07 10:26:01;;;;;;;51.05;48.45;;;;;;;;;;5018609;28;20072;-64
2024/02/07 10:28:27;;;;;;;51.15;48.15;;;;;;;;;;5019733;28;20058;-64
2024/02/07 10:31:00;;;;;;;47.85;45.45;;;;;;;;;;5019062;28;20034;-64
2024/02/07 10:33:39;;;;;;;47.53;45.13;;;;;;;;;;5017167;28;20040;-65
2024/02/07 10:36:05;;;;;;;47.58;45.10;;;;;;;;;;5022716;28;20048;-64
2024/02/07 10:38:34;;;;;;;44.13;41.92;;;;;;;;;;5019175;28;20162;-64
2024/02/07 10:41:00;;;;;;;48.03;45.53;;;;;;;;;;5022507;28;20048;-63
2024/02/07 10:43:36;;;;;;;46.50;44.13;;;;;;;;;;5024186;28;20033;-64
2024/02/07 10:46:04;;;;;;;43.78;41.58;;;;;;;;;;5025229;28;20041;-64
2024/02/07 10:48:30;;;;;;;45.78;43.45;;;;;;;;;;5024406;28;20045;-64
2024/02/07 10:50:58;;;;;;;45.95;43.55;;;;;;;;;;5022923;28;20037;-63
2024/02/07 10:53:27;;;;;;;44.42;42.13;;;;;;;;;;5022366;28;20064;-63
2024/02/07 10:55:54;;;;;;;42.80;40.60;;;;;;;;;;5023620;28;20052;-64
2024/02/07 10:58:22;;;;;;;39.70;37.65;;;;;;;;;;5021390;28;20026;-65
2024/02/07 11:00:51;;;;;;;39.90;37.90;;;;;;;;;;5022966;28;20029;-64
2024/02/07 11:03:16;;;;;;;41.45;39.35;;;;;;;;;;5021938;28;20228;-63
2024/02/07 11:05:42;;;;;;;41.75;38.88;;;;;;;;;;5024335;28;20148;-64
2024/02/07 11:08:08;;;;;;;38.63;36.63;;;;;;;;;;5022248;28;20412;-64
2024/02/07 11:10:34;;;;;;;37.90;36.00;;;;;;;;;;5021480;28;20116;-64
2024/02/07 11:13:00;;;;;;;36.72;34.83;;;;;;;;;;5024092;28;20061;-64
2024/02/07 11:15:25;;;;;;;40.72;38.63;;;;;;;;;;5021044;28;20532;-64
2024/02/07 11:17:51;;;;;;;38.40;36.40;;;;;;;;;;5023734;28;20089;-63
2024/02/07 11:20:17;;;;;;;42.13;40.00;;;;;;;;;;5022855;28;20030;-64
2024/02/07 11:22:46;;;;;;;40.47;38.38;;;;;;;;;;5023020;28;20525;-64
2024/02/07 11:25:17;;;;;;;36.45;34.55;;;;;;;;;;5024763;28;20099;-64
2024/02/07 11:27:42;;;;;;;36.10;34.25;;;;;;;;;;5022362;28;20055;-63
2024/02/07 11:30:09;;;;;;;48.83;46.30;;;;;;;;;;5024978;28;20374;-64
2024/02/07 11:32:38;;;;;;;47.33;44.50;;;;;;;;;;5022049;28;20037;-64
2024/02/07 11:35:07;;;;;;;46.08;43.55;;;;;;;;;;5022741;28;20033;-64
2024/02/07 11:37:35;;;;;;;46.75;44.40;;;;;;;;;;5021286;28;20065;-64
2024/02/07 11:40:05;;;;;;;50.50;47.95;;;;;;;;;;5022756;28;20498;-64
2024/02/07 11:42:38;;;;;;;50.75;48.08;;;;;;;;;;5022714;28;20048;-64
2024/02/07 11:45:04;;;;;;;57.40;54.50;;;;;;;;;;5020911;28;20034;-64
2024/02/07 11:47:33;;;;;;;59.08;56.03;;;;;;;;;;5023307;28;20033;-64
2024/02/07 11:50:06;;;;;;;58.70;55.72;;;;;;;;;;5022812;28;20029;-64
2024/02/07 11:52:32;;;;;;;58.00;55.10;;;;;;;;;;5021742;28;20065;-64
2024/02/07 11:55:17;;;;;;;62.22;58.97;;;;;;;;;;5022431;28;20061;-64
2024/02/07 11:57:56;;;;;;;63.00;59.83;;;;;;;;;;5024334;28;20148;-63
2024/02/07 12:00:22;;;;;;;57.13;54.22;;;;;;;;;;5022862;28;20430;-64
2024/02/07 12:02:49;;;;;;;59.00;56.05;;;;;;;;;;5022675;28;20041;-63
2024/02/07 12:05:17;;;;;;;57.72;54.83;;;;;;;;;;5023176;28;20664;-63
2024/02/07 12:07:43;;;;;;;57.63;54.72;;;;;;;;;;5024892;28;20364;-64
2024/02/07 12:10:09;;;;;;;64.30;60.95;;;;;;;;;;5020374;28;20456;-64
2024/02/07 12:12:35;;;;;;;63.33;59.63;;;;;;;;;;5023843;28;20039;-64
2024/02/07 12:15:00;;;;;;;59.53;56.42;;;;;;;;;;5021210;28;20348;-64
2024/02/07 12:17:26;;;;;;;57.92;55.03;;;;;;;;;;5019034;28;20088;-64
2024/02/07 12:19:56;;;;;;;57.65;54.78;;;;;;;;;;5023776;28;20498;-64
2024/02/07 12:22:22;;;;;;;58.85;55.90;;;;;;;;;;5022328;28;20466;-64
2024/02/07 12:24:49;;;;;;;57.70;54.83;;;;;;;;;;5021100;28;20045;-63
2024/02/07 12:27:15;;;;;;;61.53;58.35;;;;;;;;;;5020101;28;20106;-64
2024/02/07 12:30:07;;;;;;;52.92;50.25;;;;;;;;;;5021423;28;20026;-64
2024/02/07 12:32:33;;;;;;;52.95;50.25;;;;;;;;;;5022670;28;20046;-63
2024/02/07 12:35:01;;;;;;;52.72;50.05;;;;;;;;;;5018627;28;20466;-66
2024/02/07 12:37:27;;;;;;;52.33;49.63;;;;;;;;;;5020483;28;20426;-64
2024/02/07 12:39:52;;;;;;;52.63;49.97;;;;;;;;;;5021329;28;20037;-64
2024/02/07 12:42:20;;;;;;;51.80;49.20;;;;;;;;;;5022271;28;20685;-65
2024/02/07 12:44:48;;;;;;;54.08;51.35;;;;;;;;;;5023709;28;20021;-64
2024/02/07 12:47:14;;;;;;;58.50;55.58;;;;;;;;;;5020792;28;20459;-64
2024/02/07 12:49:40;;;;;;;55.83;53.00;;;;;;;;;;5022819;28;20044;-64
2024/02/07 12:52:06;;;;;;;56.63;53.63;;;;;;;;;;5020851;28;20056;-64
2024/02/07 12:54:31;;;;;;;55.08;52.28;;;;;;;;;;5021551;28;20064;-64
2024/02/07 12:56:57;;;;;;;50.60;48.05;;;;;;;;;;5021610;28;20065;-64
2024/02/07 12:59:41;;;;;;;55.58;52.78;;;;;;;;;;5023768;28;20026;-64
2024/02/07 13:02:08;;;;;;;49.00;46.40;;;;;;;;;;5019594;28;20029;-63
2024/02/07 13:04:34;;;;;;;47.35;44.95;;;;;;;;;;5019484;28;20564;-64
2024/02/07 13:07:00;;;;;;;52.22;49.63;;;;;;;;;;5019511;28;20041;-64
2024/02/07 13:09:27;;;;;;;54.03;51.25;;;;;;;;;;5019241;28;20047;-64
2024/02/07 13:11:53;;;;;;;53.58;50.85;;;;;;;;;;5020667;28;20033;-64
2024/02/07 13:14:19;;;;;;;54.65;51.78;;;;;;;;;;5021489;28;20102;-63
2024/02/07 13:16:45;;;;;;;49.92;47.40;;;;;;;;;;5019752;28;20454;-64
2024/02/07 13:19:14;;;;;;;54.47;51.75;;;;;;;;;;5020211;28;20128;-63
2024/02/07 13:21:42;;;;;;;53.97;51.28;;;;;;;;;;5022997;28;20045;-63
2024/02/07 13:24:15;;;;;;;54.03;51.33;;;;;;;;;;5018003;28;20033;-64
2024/02/07 13:26:40;;;;;;;53.67;50.97;;;;;;;;;;5023715;28;20451;-64
2024/02/07 13:29:06;;;;;;;56.53;53.70;;;;;;;;;;5019666;28;20034;-64
2024/02/07 13:31:32;;;;;;;59.90;56.88;;;;;;;;;;5019025;28;20685;-63
2024/02/07 13:33:57;;;;;;;62.42;59.25;;;;;;;;;;5021987;28;20038;-64
2024/02/07 13:36:22;;;;;;;64.95;61.67;;;;;;;;;;5022524;28;20034;-63
2024/02/07 13:38:48;;;;;;;71.50;67.95;;;;;;;;;;5021332;28;20372;-64
2024/02/07 13:41:19;;;;;;;69.47;66.03;;;;;;;;;;5019673;28;20373;-64
2024/02/07 13:43:44;;;;;;;;;;;;;;;;;;5018884;28;20460;-63
2024/02/07 13:46:10;;;;;;;63.63;60.45;;;;;;;;;;5018481;28;19952;-64
2024/02/07 13:48:35;;;;;;;61.63;58.53;;;;;;;;;;5019173;28;20045;-64
2024/02/07 13:51:02;;;;;;;57.33;54.42;;;;;;;;;;5019250;28;20414;-64
2024/02/07 13:53:28;;;;;;;39.03;37.00;;;;;;;;;;5017935;28;20057;-64
2024/02/07 13:55:53;;;;;;;42.38;40.20;;;;;;;;;;5019637;28;20037;-64
2024/02/07 13:58:19;;;;;;;47.97;45.55;;;;;;;;;;5020433;28;20091;-65
2024/02/07 14:00:44;;;;;;;45.92;43.63;;;;;;;;;;5018943;28;20426;-65
2024/02/07 14:03:09;;;;;;;43.03;40.85;;;;;;;;;;5018340;28;20136;-65
2024/02/07 14:05:34;;;;;;;44.20;41.88;;;;;;;;;;5017473;28;20454;-65
2024/02/07 14:08:01;;;;;;;45.30;43.00;;;;;;;;;;5016397;28;20033;-66
2024/02/07 14:10:26;;;;;;;44.08;41.80;;;;;;;;;;5018021;28;20113;-66
2024/02/07 14:12:52;;;;;;;47.33;44.92;;;;;;;;;;5016684;28;20124;-67
2024/02/07 14:15:17;;;;;;;56.70;53.83;;;;;;;;;;5019090;28;20108;-67
2024/02/07 14:17:42;;;;;;;50.17;47.63;;;;;;;;;;5017463;28;20053;-67
2024/02/07 14:20:09;;;;;;;56.25;53.42;;;;;;;;;;5021284;28;20091;-66
2024/02/07 14:22:36;;;;;;;63.47;60.30;;;;;;;;;;5019485;28;20124;-66
2024/02/07 14:25:01;;;;;;;73.50;69.75;;;;;;;;;;5016684;28;20379;-66
2024/02/07 14:27:26;;;;;;;89.75;85.22;;;;;;;;;;5016694;28;20033;-66
2024/02/07 14:29:51;;;;;;;41.92;39.72;;;;;;;;;;5020954;28;20503;-67
2024/02/07 14:32:17;;;;;;;45.15;42.88;;;;;;;;;;5018263;28;20028;-67
2024/02/07 14:34:42;;;;;;;42.88;40.70;;;;;;;;;;5019176;28;20029;-67
2024/02/07 14:37:07;;;;;;;64.53;61.33;;;;;;;;;;5017711;28;20483;-67
2024/02/07 14:39:33;;;;;;;67.13;63.78;;;;;;;;;;5016197;28;20069;-67
2024/02/07 14:41:58;;;;;;;70.55;67.05;;;;;;;;;;5017758;28;20040;-68
2024/02/07 14:44:24;;;;;;;68.80;65.38;;;;;;;;;;5018797;28;20360;-67
2024/02/07 14:46:49;;;;;;;69.53;66.05;;;;;;;;;;5018319;28;20041;-67
2024/02/07 14:49:15;;;;;;;74.82;71.10;;;;;;;;;;5017129;28;20515;-67
2024/02/07 14:51:40;;;;;;;79.18;75.25;;;;;;;;;;5017088;28;21337;-68
2024/02/07 14:54:05;;;;;;;101.30;96.20;;;;;;;;;;5015231;28;20056;-67
2024/02/07 14:56:31;;;;;;;109.65;104.20;;;;;;;;;;5016657;28;20053;-67
2024/02/07 14:58:56;;;;;;;166.25;158.02;;;;;;;;;;5020578;28;20037;-67
2024/02/07 15:01:22;;;;;;;207.07;196.82;;;;;;;;;;5021124;28;20030;-66
2024/02/07 15:03:47;;;;;;;219.13;208.38;;;;;;;;;;5018166;28;20030;-67
2024/02/07 15:06:13;;;;;;;237.05;225.40;;;;;;;;;;5021040;28;20045;-68
2024/02/07 15:08:38;;;;;;;242.32;230.32;;;;;;;;;;5017879;28;20044;-67
2024/02/07 15:11:04;;;;;;;267.00;253.95;;;;;;;;;;5021544;28;20129;-67
2024/02/07 15:13:29;;;;;;;248.75;236.50;;;;;;;;;;5018198;28;20049;-67
2024/02/07 15:15:54;;;;;;;247.30;235.20;;;;;;;;;;5019181;28;20072;-67